createdAt,value
2023-05-10T00:01:55.557Z,97859.59
2023-05-10T00:04:22.422Z,97857.75
2023-05-10T00:06:48.971Z,97860.63
2023-05-10T00:09:15.333Z,97850.44
2023-05-10T00:11:41.812Z,97861.38
2023-05-10T00:14:08.222Z,97843.13
2023-05-10T00:16:34.743Z,97844.16
2023-05-10T00:19:01.164Z,97839.47
2023-05-10T00:21:29.201Z,97835.81
2023-05-10T00:23:56.086Z,97837.94
2023-05-10T00:26:22.507Z,97835.38
2023-05-10T00:28:49.084Z,97842.34
2023-05-10T00:31:15.654Z,97843.75
2023-05-10T00:33:42.042Z,97854.66
2023-05-10T00:36:08.596Z,97841.59
2023-05-10T00:38:35.038Z,97832.81
2023-05-10T00:41:01.899Z,97837.91
2023-05-10T00:43:28.375Z,97830.28
2023-05-10T00:45:55.216Z,97841.94
2023-05-10T00:48:22.739Z,97838.59
2023-05-10T00:50:49.188Z,97831.25
2023-05-10T00:53:16.002Z,97828.75
2023-05-10T00:55:42.783Z,97829.06
2023-05-10T00:58:09.460Z,97839.25
2023-05-10T01:00:36.498Z,97833.44
2023-05-10T01:03:03.812Z,97825.66
2023-05-10T01:05:30.269Z,97819.91
2023-05-10T01:07:57.154Z,97819.13
2023-05-10T01:10:23.774Z,97822.75
2023-05-10T01:12:50.431Z,97819.84
2023-05-10T01:15:18.952Z,97812.84
2023-05-10T01:17:48.263Z,97815.03
2023-05-10T01:20:15.856Z,97819.75
2023-05-10T01:22:51.178Z,97814.59
2023-05-10T01:25:50.169Z,97818.34
2023-05-10T01:28:40.527Z,97813.53
2023-05-10T01:31:34.478Z,97817.81
2023-05-10T01:34:08.918Z,97809.78
2023-05-10T01:36:46.876Z,97809.34
2023-05-10T01:39:45.523Z,97803.91
2023-05-10T01:42:17.441Z,97803.16
2023-05-10T01:44:50.653Z,97798.13
2023-05-10T01:47:26.468Z,97803.97
2023-05-10T01:49:57.198Z,97803.16
2023-05-10T01:52:37.382Z,97796.91
2023-05-10T01:55:07.512Z,97798.00
2023-05-10T01:57:36.217Z,97801.63
2023-05-10T02:00:05.364Z,97804.19
2023-05-10T02:02:37.722Z,97798.63
2023-05-10T02:05:07.450Z,97800.44
2023-05-10T02:07:37.768Z,97799.72
2023-05-10T02:10:06.826Z,97804.44
2023-05-10T02:12:36.955Z,97793.25
2023-05-10T02:15:06.514Z,97797.97
2023-05-10T02:17:33.679Z,97793.56
2023-05-10T02:20:01.854Z,97789.53
2023-05-10T02:22:29.341Z,97795.94
2023-05-10T02:24:58.804Z,97785.91
2023-05-10T02:27:28.000Z,97785.94
2023-05-10T02:29:55.277Z,97781.13
2023-05-10T02:32:23.525Z,97785.44
2023-05-10T02:34:53.007Z,97796.69
2023-05-10T02:37:22.084Z,97782.84
2023-05-10T02:39:50.314Z,97789.06
2023-05-10T02:42:23.386Z,97799.19
2023-05-10T02:44:51.972Z,97786.53
2023-05-10T02:47:19.647Z,97792.31
2023-05-10T02:49:46.610Z,97798.78
2023-05-10T02:52:20.228Z,97797.72
2023-05-10T02:54:51.735Z,97793.38
2023-05-10T02:57:23.256Z,97795.09
2023-05-10T02:59:49.883Z,97797.28
2023-05-10T03:02:16.480Z,97792.56
2023-05-10T03:04:42.982Z,97786.31
2023-05-10T03:07:09.530Z,97796.88
2023-05-10T03:09:36.244Z,97791.34
2023-05-10T03:12:16.648Z,97792.50
2023-05-10T03:15:07.982Z,97784.47
2023-05-10T03:17:48.739Z,97789.88
2023-05-10T03:20:35.895Z,97796.44
2023-05-10T03:23:28.172Z,97795.97
2023-05-10T03:25:55.153Z,97790.75
2023-05-10T03:28:21.808Z,97787.13
2023-05-10T03:30:49.321Z,97783.56
2023-05-10T03:33:15.747Z,97783.81
2023-05-10T03:35:42.442Z,97787.38
2023-05-10T03:38:08.827Z,97778.44
2023-05-10T03:40:35.462Z,97787.38
2023-05-10T03:43:02.050Z,97784.22
2023-05-10T03:45:28.530Z,97790.03
2023-05-10T03:47:55.304Z,97789.63
2023-05-10T03:50:21.969Z,97794.41
2023-05-10T03:52:48.365Z,97795.44
2023-05-10T03:55:14.903Z,97789.38
2023-05-10T03:57:41.272Z,97798.09
2023-05-10T04:00:08.195Z,97797.66
2023-05-10T04:02:34.732Z,97795.88
2023-05-10T04:05:01.533Z,97802.19
2023-05-10T04:07:27.949Z,97802.56
2023-05-10T04:09:54.356Z,97805.84
2023-05-10T04:12:20.905Z,97795.75
2023-05-10T04:14:47.485Z,97793.94
2023-05-10T04:17:13.969Z,97791.03
2023-05-10T04:19:40.533Z,97792.59
2023-05-10T04:22:06.877Z,97783.94
2023-05-10T04:24:33.298Z,97788.72
2023-05-10T04:26:59.683Z,97780.41
2023-05-10T04:29:26.103Z,97792.16
2023-05-10T04:31:52.545Z,97778.72
2023-05-10T04:34:19.634Z,97779.84
2023-05-10T04:36:45.982Z,97794.44
2023-05-10T04:39:12.336Z,97785.47
2023-05-10T04:41:39.110Z,97784.69
2023-05-10T04:44:05.680Z,97786.25
2023-05-10T04:46:32.303Z,97790.66
2023-05-10T04:48:58.917Z,97796.97
2023-05-10T04:51:25.414Z,97795.28
2023-05-10T04:54:02.243Z,97793.84
2023-05-10T04:56:32.132Z,97789.97
2023-05-10T04:58:58.635Z,97782.78
2023-05-10T05:01:25.059Z,97788.63
2023-05-10T05:03:53.848Z,97788.41
2023-05-10T05:06:21.997Z,97785.22
2023-05-10T05:08:50.404Z,97792.09
2023-05-10T05:11:17.774Z,97796.91
2023-05-10T05:13:44.585Z,97796.56
2023-05-10T05:16:12.169Z,97800.94
2023-05-10T05:18:38.789Z,97787.09
2023-05-10T05:21:15.200Z,97796.91
2023-05-10T05:23:41.591Z,97791.47
2023-05-10T05:26:08.119Z,97792.59
2023-05-10T05:28:38.072Z,97788.91
2023-05-10T05:31:08.980Z,97782.75
2023-05-10T05:33:35.819Z,97777.28
2023-05-10T05:36:03.940Z,97777.94
2023-05-10T05:38:30.636Z,97775.78
2023-05-10T05:40:57.881Z,97776.16
2023-05-10T05:43:24.289Z,97788.56
2023-05-10T05:45:50.970Z,97776.16
2023-05-10T05:48:17.368Z,97774.66
2023-05-10T05:50:43.914Z,97770.22
2023-05-10T05:53:10.842Z,97779.09
2023-05-10T05:55:37.474Z,97781.28
2023-05-10T05:58:04.158Z,97773.94
2023-05-10T06:00:30.522Z,97767.03
2023-05-10T06:02:56.987Z,97766.28
2023-05-10T06:05:23.435Z,97776.38
2023-05-10T06:07:49.979Z,97761.84
2023-05-10T06:10:16.398Z,97777.94
2023-05-10T06:12:42.880Z,97777.47
2023-05-10T06:15:10.079Z,97777.31
2023-05-10T06:17:36.561Z,97778.91
2023-05-10T06:20:03.319Z,97778.63
2023-05-10T06:22:29.792Z,97778.25
2023-05-10T06:24:56.275Z,97784.50
2023-05-10T06:27:23.131Z,97769.59
2023-05-10T06:29:52.142Z,97775.81
2023-05-10T06:32:20.733Z,97776.31
2023-05-10T06:34:47.389Z,97787.59
2023-05-10T06:37:13.875Z,97784.91
2023-05-10T06:39:40.330Z,97785.13
2023-05-10T06:42:06.795Z,97781.25
2023-05-10T06:44:33.270Z,97775.97
2023-05-10T06:46:59.809Z,97784.50
2023-05-10T06:49:26.203Z,97778.06
2023-05-10T06:51:52.836Z,97793.19
2023-05-10T06:54:20.093Z,97788.19
2023-05-10T06:56:46.463Z,97791.16
2023-05-10T06:59:14.563Z,97800.91
2023-05-10T07:01:41.429Z,97788.94
2023-05-10T07:04:08.859Z,97790.81
2023-05-10T07:06:35.368Z,97797.44
2023-05-10T07:09:02.211Z,97793.19
2023-05-10T07:11:28.853Z,97799.72
2023-05-10T07:13:55.417Z,97799.78
2023-05-10T07:16:22.674Z,97802.91
2023-05-10T07:18:49.305Z,97806.72
2023-05-10T07:21:16.002Z,97799.38
2023-05-10T07:23:44.959Z,97797.25
2023-05-10T07:26:12.363Z,97800.19
2023-05-10T07:28:39.157Z,97804.06
2023-05-10T07:31:05.776Z,97801.69
2023-05-10T07:33:32.210Z,97804.97
2023-05-10T07:35:58.644Z,97809.16
2023-05-10T07:38:25.054Z,97805.63
2023-05-10T07:40:51.497Z,97800.69
2023-05-10T07:43:17.909Z,97807.06
2023-05-10T07:45:44.519Z,97802.44
2023-05-10T07:48:10.965Z,97809.91
2023-05-10T07:50:37.508Z,97806.91
2023-05-10T07:53:04.009Z,97808.75
2023-05-10T07:55:30.713Z,97810.00
2023-05-10T07:57:57.384Z,97811.91
2023-05-10T08:00:23.858Z,97810.44
2023-05-10T08:02:50.436Z,97801.59
2023-05-10T08:05:17.212Z,97805.03
2023-05-10T08:07:43.944Z,97808.56
2023-05-10T08:10:12.134Z,97795.84
2023-05-10T08:12:39.249Z,97798.81
2023-05-10T08:15:06.625Z,97805.13
2023-05-10T08:17:33.507Z,97803.41
2023-05-10T08:19:59.915Z,97807.50
2023-05-10T08:22:26.368Z,97805.56
2023-05-10T08:24:53.117Z,97812.44
2023-05-10T08:27:19.618Z,97816.72
2023-05-10T08:29:50.121Z,97820.81
2023-05-10T08:32:17.175Z,97817.78
2023-05-10T08:34:43.661Z,97817.56
2023-05-10T08:37:11.427Z,97827.88
2023-05-10T08:39:38.436Z,97824.38
2023-05-10T08:42:05.959Z,97825.00
2023-05-10T08:44:35.085Z,97821.78
2023-05-10T08:47:05.145Z,97825.03
2023-05-10T08:49:32.846Z,97827.56
2023-05-10T08:52:02.804Z,97829.13
2023-05-10T08:54:29.204Z,97829.66
2023-05-10T08:56:55.814Z,97831.09
2023-05-10T08:59:22.512Z,97841.56
2023-05-10T09:01:50.855Z,97838.63
2023-05-10T09:04:17.383Z,97840.50
2023-05-10T09:06:43.879Z,97841.63
2023-05-10T09:09:10.278Z,97846.81
2023-05-10T09:11:36.795Z,97843.63
2023-05-10T09:14:03.726Z,97863.28
2023-05-10T09:16:30.311Z,97853.25
2023-05-10T09:18:57.121Z,97847.63
2023-05-10T09:21:23.860Z,97854.56
2023-05-10T09:23:51.296Z,97849.13
2023-05-10T09:26:18.641Z,97846.50
2023-05-10T09:28:56.958Z,97855.50
2023-05-10T09:31:24.801Z,97847.53
2023-05-10T09:33:51.936Z,97858.59
2023-05-10T09:36:18.776Z,97863.22
2023-05-10T09:38:50.021Z,97853.13
2023-05-10T09:41:21.687Z,97841.22
2023-05-10T09:43:48.721Z,97847.00
2023-05-10T09:46:16.319Z,97858.03
2023-05-10T09:48:46.987Z,97853.00
2023-05-10T09:51:24.252Z,97856.84
2023-05-10T09:54:11.099Z,97849.25
2023-05-10T09:56:39.832Z,97864.25
2023-05-10T09:59:08.246Z,97848.38
2023-05-10T10:01:36.201Z,97854.72
2023-05-10T10:04:07.502Z,97851.63
2023-05-10T10:06:38.765Z,97855.41
2023-05-10T10:09:07.042Z,97850.50
2023-05-10T10:11:35.514Z,97850.66
2023-05-10T10:14:02.297Z,97855.19
2023-05-10T10:16:32.888Z,97842.09
2023-05-10T10:18:59.781Z,97845.88
2023-05-10T10:21:26.703Z,97838.84
2023-05-10T10:23:54.122Z,97844.13
2023-05-10T10:26:22.107Z,97843.44
2023-05-10T10:29:07.160Z,97839.84
2023-05-10T10:31:40.256Z,97847.94
2023-05-10T10:34:08.129Z,97845.97
2023-05-10T10:36:49.946Z,97849.16
2023-05-10T10:39:17.022Z,97849.63
2023-05-10T10:41:51.838Z,97844.28
2023-05-10T10:44:27.635Z,97841.72
2023-05-10T10:47:06.689Z,97846.84
2023-05-10T10:49:34.719Z,97854.22
2023-05-10T10:52:35.078Z,97851.81
2023-05-10T10:55:07.996Z,97846.06
2023-05-10T10:57:45.677Z,97845.25
2023-05-10T11:00:25.016Z,97845.16
2023-05-10T11:02:57.456Z,97834.28
2023-05-10T11:05:41.802Z,97840.59
2023-05-10T11:08:17.148Z,97832.13
2023-05-10T11:10:53.195Z,97830.53
2023-05-10T11:13:30.297Z,97842.72
2023-05-10T11:15:58.175Z,97843.09
2023-05-10T11:18:26.872Z,97835.88
2023-05-10T11:21:10.397Z,97836.34
2023-05-10T11:23:59.656Z,97840.63
2023-05-10T11:26:30.800Z,97834.38
2023-05-10T11:28:57.337Z,97840.44
2023-05-10T11:31:24.308Z,97849.84
2023-05-10T11:33:53.239Z,97839.41
2023-05-10T11:36:21.798Z,97835.53
2023-05-10T11:38:49.598Z,97835.28
2023-05-10T11:41:18.071Z,97842.69
2023-05-10T11:43:47.265Z,97834.19
2023-05-10T11:46:14.347Z,97839.66
2023-05-10T11:48:41.134Z,97835.56
2023-05-10T11:51:08.851Z,97839.59
2023-05-10T11:53:35.667Z,97842.09
2023-05-10T11:56:07.020Z,97846.31
2023-05-10T11:58:34.476Z,97844.09
2023-05-10T12:01:01.442Z,97843.16
2023-05-10T12:03:29.194Z,97855.66
2023-05-10T12:05:56.571Z,97846.63
2023-05-10T12:08:24.324Z,97859.53
2023-05-10T12:10:51.404Z,97850.66
2023-05-10T12:13:18.584Z,97842.22
2023-05-10T12:15:45.083Z,97843.97
2023-05-10T12:18:16.104Z,97834.56
2023-05-10T12:20:42.639Z,97852.22
2023-05-10T12:23:10.945Z,97853.31
2023-05-10T12:25:38.552Z,97847.88
2023-05-10T12:28:07.499Z,97853.59
2023-05-10T12:30:36.026Z,97846.00
2023-05-10T12:33:11.802Z,97844.16
2023-05-10T12:35:49.576Z,97848.66
2023-05-10T12:38:30.764Z,97851.19
2023-05-10T12:40:59.150Z,97846.16
2023-05-10T12:43:25.728Z,97848.16
2023-05-10T12:45:52.368Z,97850.44
2023-05-10T12:48:18.948Z,97846.88
2023-05-10T12:50:46.219Z,97850.50
2023-05-10T12:53:14.855Z,97852.69
2023-05-10T12:55:41.351Z,97855.94
2023-05-10T12:58:07.908Z,97866.88
2023-05-10T13:00:34.489Z,97860.81
2023-05-10T13:03:00.989Z,97847.88
2023-05-10T13:05:27.405Z,97846.75
2023-05-10T13:07:53.773Z,97859.94
2023-05-10T13:10:20.216Z,97855.81
2023-05-10T13:12:46.710Z,97860.28
2023-05-10T13:15:13.103Z,97857.16
2023-05-10T13:17:41.707Z,97851.34
2023-05-10T13:20:08.386Z,97856.94
2023-05-10T13:22:40.288Z,97856.94
2023-05-10T13:25:07.377Z,97843.16
2023-05-10T13:27:33.811Z,97842.00
2023-05-10T13:30:00.505Z,97852.78
2023-05-10T13:32:27.389Z,97847.28
2023-05-10T13:34:53.949Z,97845.34
2023-05-10T13:37:20.555Z,97844.72
2023-05-10T13:39:47.035Z,97845.59
2023-05-10T13:42:13.602Z,97844.56
2023-05-10T13:44:40.288Z,97840.50
2023-05-10T13:47:07.670Z,97849.69
2023-05-10T13:49:35.025Z,97847.03
2023-05-10T13:52:07.694Z,97851.06
2023-05-10T13:54:35.303Z,97858.19
2023-05-10T13:57:01.695Z,97847.81
2023-05-10T13:59:28.277Z,97844.13
2023-05-10T14:01:54.756Z,97845.28
2023-05-10T14:04:21.679Z,97845.72
2023-05-10T14:06:52.151Z,97842.81
2023-05-10T14:09:19.437Z,97849.47
2023-05-10T14:11:46.678Z,97844.16
2023-05-10T14:14:14.360Z,97844.69
2023-05-10T14:16:45.315Z,97845.13
2023-05-10T14:19:12.478Z,97847.28
2023-05-10T14:21:39.107Z,97845.63
2023-05-10T14:24:05.946Z,97837.25
2023-05-10T14:26:32.428Z,97830.00
2023-05-10T14:29:00.072Z,97835.72
2023-05-10T14:31:26.679Z,97837.19
2023-05-10T14:33:54.008Z,97826.56
2023-05-10T14:36:20.476Z,97827.81
2023-05-10T14:38:46.957Z,97832.41
2023-05-10T14:41:15.542Z,97833.69
2023-05-10T14:43:42.342Z,97845.38
2023-05-10T14:46:09.599Z,97845.97
2023-05-10T14:48:36.320Z,97842.91
2023-05-10T14:51:03.056Z,97843.56
2023-05-10T14:53:29.656Z,97847.97
2023-05-10T14:55:56.069Z,97846.34
2023-05-10T14:58:22.609Z,97840.88
2023-05-10T15:00:49.691Z,97851.19
2023-05-10T15:03:17.158Z,97845.25
2023-05-10T15:05:44.045Z,97845.66
2023-05-10T15:08:10.723Z,97849.38
2023-05-10T15:10:37.843Z,97850.66
2023-05-10T15:13:05.626Z,97850.13
2023-05-10T15:15:32.296Z,97846.31
2023-05-10T15:17:58.954Z,97849.75
2023-05-10T15:20:25.934Z,97846.06
2023-05-10T15:22:52.379Z,97845.72
2023-05-10T15:25:19.162Z,97851.47
2023-05-10T15:27:46.077Z,97853.69
2023-05-10T15:30:13.192Z,97854.19
2023-05-10T15:32:41.038Z,97851.84
2023-05-10T15:35:09.499Z,97855.84
2023-05-10T15:37:36.694Z,97856.50
2023-05-10T15:40:06.014Z,97858.88
2023-05-10T15:42:32.812Z,97851.66
2023-05-10T15:44:59.698Z,97856.72
2023-05-10T15:47:27.008Z,97855.97
2023-05-10T15:49:53.487Z,97864.78
2023-05-10T15:52:21.566Z,97858.69
2023-05-10T15:54:48.047Z,97860.34
2023-05-10T15:57:14.430Z,97864.78
2023-05-10T15:59:40.883Z,97865.59
2023-05-10T16:02:08.487Z,97867.44
2023-05-10T16:04:34.897Z,97873.25
2023-05-10T16:07:01.595Z,97873.13
2023-05-10T16:09:27.960Z,97867.88
2023-05-10T16:11:54.470Z,97873.75
2023-05-10T16:14:24.649Z,97872.00
2023-05-10T16:16:51.596Z,97876.34
2023-05-10T16:19:18.487Z,97878.59
2023-05-10T16:21:45.129Z,97880.16
2023-05-10T16:24:11.508Z,97873.75
2023-05-10T16:26:40.915Z,97878.59
2023-05-10T16:29:10.619Z,97886.41
2023-05-10T16:31:37.135Z,97891.13
2023-05-10T16:34:03.756Z,97889.38
2023-05-10T16:36:31.511Z,97898.66
2023-05-10T16:38:58.041Z,97902.09
2023-05-10T16:41:24.740Z,97904.78
2023-05-10T16:43:51.287Z,97908.06
2023-05-10T16:46:17.800Z,97913.75
2023-05-10T16:48:44.233Z,97912.06
2023-05-10T16:51:10.628Z,97916.38
2023-05-10T16:53:37.116Z,97914.75
2023-05-10T16:56:03.598Z,97918.94
2023-05-10T16:58:30.039Z,97911.97
2023-05-10T17:00:56.472Z,97914.88
2023-05-10T17:03:23.352Z,97925.78
2023-05-10T17:05:50.034Z,97931.66
2023-05-10T17:08:16.516Z,97933.81
2023-05-10T17:10:42.906Z,97925.59
2023-05-10T17:13:10.399Z,97943.50
2023-05-10T17:15:37.737Z,97930.19
2023-05-10T17:18:04.798Z,97930.19
2023-05-10T17:20:32.264Z,97936.56
2023-05-10T17:22:58.840Z,97940.59
2023-05-10T17:25:25.617Z,97942.53
2023-05-10T17:27:52.028Z,97948.44
2023-05-10T17:30:22.555Z,97951.94
2023-05-10T17:32:49.090Z,97957.59
2023-05-10T17:35:15.730Z,97956.69
2023-05-10T17:37:42.634Z,97951.31
2023-05-10T17:40:10.048Z,97960.91
2023-05-10T17:42:36.736Z,97967.28
2023-05-10T17:45:03.826Z,97968.16
2023-05-10T17:47:30.478Z,97965.19
2023-05-10T17:49:56.912Z,97970.38
2023-05-10T17:52:23.314Z,97965.66
2023-05-10T17:54:49.681Z,97970.38
2023-05-10T17:57:16.023Z,97971.91
2023-05-10T17:59:42.412Z,97975.69
2023-05-10T18:02:08.753Z,97974.22
2023-05-10T18:04:35.273Z,97971.09
2023-05-10T18:07:01.995Z,97977.78
2023-05-10T18:09:28.756Z,97983.81
2023-05-10T18:11:55.165Z,97988.97
2023-05-10T18:14:35.946Z,97990.09
2023-05-10T18:17:06.900Z,97991.28
2023-05-10T18:19:33.514Z,97998.34
2023-05-10T18:21:59.858Z,98008.56
2023-05-10T18:24:38.354Z,98005.91
2023-05-10T18:27:06.955Z,98006.59
2023-05-10T18:29:33.424Z,98010.78
2023-05-10T18:31:59.836Z,98006.38
2023-05-10T18:34:26.309Z,98006.50
2023-05-10T18:36:53.058Z,98013.97
2023-05-10T18:39:19.726Z,98008.25
2023-05-10T18:41:46.362Z,98012.72
2023-05-10T18:44:12.766Z,98011.72
2023-05-10T18:46:39.493Z,98017.28
2023-05-10T18:49:06.602Z,98017.44
2023-05-10T18:51:33.138Z,98025.31
2023-05-10T18:53:59.543Z,98027.25
2023-05-10T18:56:25.966Z,98030.59
2023-05-10T18:58:52.736Z,98032.75
2023-05-10T19:01:19.283Z,98031.41
2023-05-10T19:03:45.741Z,98034.81
2023-05-10T19:06:12.236Z,98036.66
2023-05-10T19:08:38.796Z,98030.13
2023-05-10T19:11:05.281Z,98033.91
2023-05-10T19:13:31.863Z,98039.44
2023-05-10T19:16:24.896Z,98041.69
2023-05-10T19:18:52.357Z,98041.69
2023-05-10T19:21:18.978Z,98037.41
2023-05-10T19:23:46.195Z,98041.56
2023-05-10T19:26:12.738Z,98050.41
2023-05-10T19:28:39.613Z,98046.44
2023-05-10T19:31:07.784Z,98048.63
2023-05-10T19:33:34.542Z,98049.72
2023-05-10T19:36:01.003Z,98050.16
2023-05-10T19:38:27.633Z,98056.84
2023-05-10T19:40:59.728Z,98050.34
2023-05-10T19:43:27.615Z,98054.03
2023-05-10T19:45:55.072Z,98067.66
2023-05-10T19:48:21.763Z,98064.78
2023-05-10T19:50:48.141Z,98065.91
2023-05-10T19:53:14.583Z,98060.78
2023-05-10T19:55:41.694Z,98060.84
2023-05-10T19:58:08.518Z,98060.13
2023-05-10T20:00:35.059Z,98068.53
2023-05-10T20:03:02.135Z,98062.31
2023-05-10T20:05:28.854Z,98064.88
2023-05-10T20:07:55.226Z,98064.19
2023-05-10T20:10:22.065Z,98070.03
2023-05-10T20:12:52.175Z,98065.66
2023-05-10T20:15:20.642Z,98071.88
2023-05-10T20:17:47.910Z,98064.94
2023-05-10T20:20:16.559Z,98075.88
2023-05-10T20:22:44.213Z,98077.75
2023-05-10T20:25:11.025Z,98076.31
2023-05-10T20:27:37.489Z,98077.78
2023-05-10T20:30:04.908Z,98084.38
2023-05-10T20:32:31.631Z,98081.81
2023-05-10T20:34:58.264Z,98075.56
2023-05-10T20:37:24.646Z,98080.31
2023-05-10T20:39:51.032Z,98085.09
2023-05-10T20:42:17.378Z,98092.06
2023-05-10T20:44:43.761Z,98089.84
2023-05-10T20:47:10.194Z,98078.88
2023-05-10T20:49:37.940Z,98076.31
2023-05-10T20:52:05.014Z,98074.13
2023-05-10T20:54:31.505Z,98077.44
2023-05-10T20:56:57.998Z,98076.28
2023-05-10T20:59:25.485Z,98073.72
2023-05-10T21:01:52.016Z,98080.31
2023-05-10T21:04:19.374Z,98073.00
2023-05-10T21:06:46.712Z,98072.59
2023-05-10T21:09:14.812Z,98077.09
2023-05-10T21:11:42.131Z,98073.75
2023-05-10T21:14:10.441Z,98074.81
2023-05-10T21:16:38.570Z,98076.69
2023-05-10T21:19:07.493Z,98069.34
2023-05-10T21:21:34.103Z,98075.22
2023-05-10T21:24:00.596Z,98067.16
2023-05-10T21:26:27.068Z,98076.69
2023-05-10T21:28:53.449Z,98073.75
2023-05-10T21:31:20.229Z,98063.09
2023-05-10T21:33:46.677Z,98073.38
2023-05-10T21:36:13.096Z,98069.69
2023-05-10T21:38:39.488Z,98061.66
2023-05-10T21:41:08.676Z,98067.53
2023-05-10T21:43:35.051Z,98070.47
2023-05-10T21:46:01.539Z,98074.13
2023-05-10T21:48:27.971Z,98065.31
2023-05-10T21:50:54.414Z,98074.53
2023-05-10T21:53:20.797Z,98069.41
2023-05-10T21:55:48.148Z,98066.47
2023-05-10T21:58:14.554Z,98067.59
2023-05-10T22:00:40.953Z,98067.97
2023-05-10T22:03:07.413Z,98065.38
2023-05-10T22:05:33.812Z,98063.56
2023-05-10T22:08:00.243Z,98074.88
2023-05-10T22:10:26.602Z,98074.53
2023-05-10T22:12:52.984Z,98078.56
2023-05-10T22:15:19.334Z,98076.34
2023-05-10T22:17:45.754Z,98074.91
2023-05-10T22:20:12.450Z,98080.38
2023-05-10T22:22:38.782Z,98072.72
2023-05-10T22:25:07.401Z,98079.25
2023-05-10T22:27:34.130Z,98072.34
2023-05-10T22:30:00.622Z,98076.38
2023-05-10T22:32:27.231Z,98078.91
2023-05-10T22:34:53.756Z,98081.81
2023-05-10T22:37:20.149Z,98075.66
2023-05-10T22:39:46.785Z,98069.41
2023-05-10T22:42:13.165Z,98078.88
2023-05-10T22:44:39.540Z,98078.16
2023-05-10T22:47:06.809Z,98077.81
2023-05-10T22:49:33.934Z,98083.28
2023-05-10T22:52:00.600Z,98075.94
2023-05-10T22:54:27.798Z,98075.97
2023-05-10T22:56:54.426Z,98077.78
2023-05-10T22:59:20.987Z,98074.16
2023-05-10T23:01:48.941Z,98079.94
2023-05-10T23:04:15.759Z,98081.41
2023-05-10T23:06:42.272Z,98086.88
2023-05-10T23:09:08.963Z,98083.56
2023-05-10T23:11:35.394Z,98079.56
2023-05-10T23:14:01.903Z,98082.47
2023-05-10T23:16:28.490Z,98085.41
2023-05-10T23:18:55.256Z,98082.78
2023-05-10T23:21:21.637Z,98085.34
2023-05-10T23:23:48.035Z,98087.53
2023-05-10T23:26:14.490Z,98086.81
2023-05-10T23:28:41.000Z,98087.91
2023-05-10T23:31:07.380Z,98082.03
2023-05-10T23:33:33.766Z,98080.22
2023-05-10T23:36:00.185Z,98086.75
2023-05-10T23:38:27.008Z,98082.34
2023-05-10T23:40:53.456Z,98079.84
2023-05-10T23:43:20.838Z,98083.09
2023-05-10T23:45:54.724Z,98079.50
2023-05-10T23:48:21.385Z,98085.31
2023-05-10T23:50:47.941Z,98073.97
2023-05-10T23:53:14.316Z,98076.56
2023-05-10T23:55:40.659Z,98079.88
2023-05-10T23:58:07.033Z,98076.56
